Andamooka, South Australia

6:44 AM CST on August 31, 2014 (GMT +0930)
Woomera | Change Station
CLOSE
Current Station
Airport
Location: Woomera,
Elevation: 548 ft
Nearby Weather Stations

Elev 548 ft 31.16 °S, 136.81 °E | Updated 14 minutes ago

Clear
Clear
54 °F
Feels Like 54 °F
N
13
Wind Variable Wind from North

Today
High -- | Low -- °F
--% Chance of Precip.
Yesterday
High -- | Low -- °F
Precip. -- in
6:38 AM 6:05 PM
Waxing Crescent, 24% visible
Pressure 30.04 in
Visibility 6.2 miles
Clouds
Dew Point 23 °F
Humidity 30%
Rainfall 0.00 in
Snow Depth Not available.
UV Not available.
Pollen Not available.
Air Quality Not available.
Flu Activity Not available.
METAR YPWR 302100Z AUTO 36011KT 9999 // NCD 12/M05 Q1017

More Conditions Fewer Conditions

Pressure 30.04 in
Visibility 6.2 miles
Clouds
Dew Point 23 °F
Humidity 30%
Rainfall 0.00 in
Snow Depth Not available.
UV Not available.
Pollen Not available.
Air Quality Not available.
Flu Activity Not available.
METAR YPWR 302100Z AUTO 36011KT 9999 // NCD 12/M05 Q1017

More Conditions Fewer Conditions

10-Day Weather Forecast

Almanac

Astronomy

Aug. 31, 2014 Rise Set
Actual Time 6:38 AM CST 6:05 PM CST
Civil Twilight 6:14 AM CST 6:29 PM CST
Nautical Twilight 5:46 AM CST 6:57 PM CST
Astronomical Twilight 5:18 AM CST 7:25 PM CST
Moon 9:39 AM CST (8/31) 11:10 PM CST (8/31)
Length of Visible Light 12h 14m
Length of Day
11h 26m
Tomorrow will be 1m 45s longer.
Waxing Crescent, 24% of the Moon is Illuminated
Aug 30
Waxing Crescent
Sep 2
First Quarter
Sep 8
Full
Sep 15
Last Quarter
Sep 24
New

Yesterday's Extremes

Country Highs Country Lows

Community

WunderPhotos

Upload Photos

1,748,634 photos uploaded!

WunderBlogs® & News

Nearby

Snow Depth

Not available.

Earthquake Activity

City Distance Mag. Time & Date
No recent earthquake activity has been reported nearby.
Minimum magnitude displayed is 2.5.

Coastal Water Temperatures

Place Temperature
No Stations Reporting

Nearby Weather Stations